sensor_id;sensor_type;location;lat;lon;timestamp;pressure;altitude;pressure_sealevel;temperature;humidity
68508;BME280;55510;49.560;19.090;2023-04-21T15:34:40;96358.53;;;20.16;27.90
68508;BME280;55510;49.560;19.090;2023-04-21T15:37:41;96354.22;;;19.92;28.28
68508;BME280;55510;49.560;19.090;2023-04-21T15:40:42;96352.78;;;19.80;29.15
68508;BME280;55510;49.560;19.090;2023-04-21T15:43:43;96354.47;;;19.53;29.50
68508;BME280;55510;49.560;19.090;2023-04-21T15:46:43;96352.88;;;19.24;29.19
68508;BME280;55510;49.560;19.090;2023-04-21T15:49:44;96348.78;;;19.13;27.57
68508;BME280;55510;49.560;19.090;2023-04-21T15:52:45;96346.25;;;18.89;30.50
68508;BME280;55510;49.560;19.090;2023-04-21T15:55:46;96339.06;;;18.84;32.56
68508;BME280;55510;49.560;19.090;2023-04-21T15:58:46;96344.81;;;18.77;30.43
68508;BME280;55510;49.560;19.090;2023-04-21T16:01:47;96344.75;;;18.82;31.06
68508;BME280;55510;49.560;19.090;2023-04-21T16:04:47;96342.63;;;18.65;32.34
68508;BME280;55510;49.560;19.090;2023-04-21T16:07:48;96342.09;;;18.49;30.46
68508;BME280;55510;49.560;19.090;2023-04-21T16:10:49;96345.09;;;18.15;30.32
68508;BME280;55510;49.560;19.090;2023-04-21T16:13:50;96342.75;;;18.08;31.33
68508;BME280;55510;49.560;19.090;2023-04-21T16:16:51;96342.16;;;18.11;31.47
68508;BME280;55510;49.560;19.090;2023-04-21T16:19:52;96334.94;;;17.87;31.29
68508;BME280;55510;49.560;19.090;2023-04-21T16:22:53;96334.38;;;17.71;31.56
68508;BME280;55510;49.560;19.090;2023-04-21T16:25:54;96332.84;;;17.65;31.88
68508;BME280;55510;49.560;19.090;2023-04-21T16:28:54;96327.66;;;17.49;31.67
68508;BME280;55510;49.560;19.090;2023-04-21T16:31:56;96333.91;;;17.25;32.29
68508;BME280;55510;49.560;19.090;2023-04-21T16:34:56;96326.91;;;17.00;32.13
68508;BME280;55510;49.560;19.090;2023-04-21T16:37:57;96329.31;;;17.26;32.92
68508;BME280;55510;49.560;19.090;2023-04-21T16:40:58;96326.97;;;18.01;32.25
68508;BME280;55510;49.560;19.090;2023-04-21T16:43:58;96330.84;;;18.61;30.68
68508;BME280;55510;49.560;19.090;2023-04-21T16:46:59;96330.25;;;18.64;30.99
68508;BME280;55510;49.560;19.090;2023-04-21T16:50:00;96322.38;;;18.02;30.72
68508;BME280;55510;49.560;19.090;2023-04-21T16:53:01;96319.91;;;17.48;31.89
68508;BME280;55510;49.560;19.090;2023-04-21T16:56:02;96325.63;;;16.98;33.17
68508;BME280;55510;49.560;19.090;2023-04-21T16:59:03;96317.47;;;16.49;34.32
68508;BME280;55510;49.560;19.090;2023-04-21T17:02:03;96325.19;;;15.86;34.82
68508;BME280;55510;49.560;19.090;2023-04-21T17:05:04;96323.56;;;15.50;36.11
68508;BME280;55510;49.560;19.090;2023-04-21T17:08:05;96312.69;;;15.16;36.48
68508;BME280;55510;49.560;19.090;2023-04-21T17:11:06;96325.44;;;14.79;37.55
68508;BME280;55510;49.560;19.090;2023-04-21T17:14:06;96315.28;;;14.45;38.53
68508;BME280;55510;49.560;19.090;2023-04-21T17:17:07;96321.72;;;14.13;39.19
68508;BME280;55510;49.560;19.090;2023-04-21T17:20:10;96319.59;;;13.78;40.01
68508;BME280;55510;49.560;19.090;2023-04-21T17:23:11;96323.25;;;13.46;39.71
68508;BME280;55510;49.560;19.090;2023-04-21T17:26:12;96323.66;;;13.23;40.80
68508;BME280;55510;49.560;19.090;2023-04-21T17:29:13;96323.06;;;13.00;41.32
68508;BME280;55510;49.560;19.090;2023-04-21T17:32:13;96332.53;;;12.75;41.89
68508;BME280;55510;49.560;19.090;2023-04-21T17:35:14;96319.03;;;12.44;44.39
68508;BME280;55510;49.560;19.090;2023-04-21T17:38:16;96325.22;;;12.17;45.37
68508;BME280;55510;49.560;19.090;2023-04-21T17:41:16;96324.50;;;11.94;45.49
68508;BME280;55510;49.560;19.090;2023-04-21T17:44:17;96326.97;;;11.73;45.81
68508;BME280;55510;49.560;19.090;2023-04-21T17:47:18;96329.66;;;11.51;46.20
68508;BME280;55510;49.560;19.090;2023-04-21T17:50:19;96329.13;;;11.27;47.41
68508;BME280;55510;49.560;19.090;2023-04-21T17:53:21;96331.84;;;10.87;48.87
68508;BME280;55510;49.560;19.090;2023-04-21T17:56:22;96338.78;;;10.49;50.34
68508;BME280;55510;49.560;19.090;2023-04-21T17:59:26;96341.91;;;10.12;53.76
68508;BME280;55510;49.560;19.090;2023-04-21T18:02:27;96340.84;;;9.79;54.79
68508;BME280;55510;49.560;19.090;2023-04-21T18:05:28;96338.81;;;9.69;54.61
68508;BME280;55510;49.560;19.090;2023-04-21T18:08:31;96342.41;;;9.34;56.32
68508;BME280;55510;49.560;19.090;2023-04-21T18:11:32;96348.97;;;9.02;59.21
68508;BME280;55510;49.560;19.090;2023-04-21T18:14:33;96351.28;;;8.98;59.11
68508;BME280;55510;49.560;19.090;2023-04-21T18:17:33;96354.09;;;8.68;60.45
68508;BME280;55510;49.560;19.090;2023-04-21T18:20:36;96351.22;;;8.58;60.74
68508;BME280;55510;49.560;19.090;2023-04-21T18:23:37;96349.56;;;8.45;62.34
68508;BME280;55510;49.560;19.090;2023-04-21T18:26:38;96353.72;;;8.28;63.03
68508;BME280;55510;49.560;19.090;2023-04-21T18:29:38;96358.53;;;8.08;64.56
68508;BME280;55510;49.560;19.090;2023-04-21T18:32:39;96357.31;;;7.80;65.48
68508;BME280;55510;49.560;19.090;2023-04-21T18:35:40;96367.19;;;7.73;66.36
68508;BME280;55510;49.560;19.090;2023-04-21T18:38:42;96370.69;;;7.54;66.69
68508;BME280;55510;49.560;19.090;2023-04-21T18:41:43;96369.28;;;7.40;67.35
68508;BME280;55510;49.560;19.090;2023-04-21T18:44:48;96366.09;;;7.31;66.83
68508;BME280;55510;49.560;19.090;2023-04-21T18:47:48;96371.72;;;7.23;67.72
68508;BME280;55510;49.560;19.090;2023-04-21T18:50:51;96371.56;;;7.18;66.98
68508;BME280;55510;49.560;19.090;2023-04-21T18:53:52;96375.38;;;7.03;67.85
68508;BME280;55510;49.560;19.090;2023-04-21T18:56:53;96373.47;;;6.92;68.56
68508;BME280;55510;49.560;19.090;2023-04-21T18:59:53;96370.25;;;6.90;67.98
68508;BME280;55510;49.560;19.090;2023-04-21T19:02:54;96385.00;;;6.79;69.11
68508;BME280;55510;49.560;19.090;2023-04-21T19:05:55;96381.84;;;6.70;68.75
68508;BME280;55510;49.560;19.090;2023-04-21T19:08:56;96381.38;;;6.55;70.89
68508;BME280;55510;49.560;19.090;2023-04-21T19:11:57;96377.63;;;6.44;70.77
68508;BME280;55510;49.560;19.090;2023-04-21T19:14:58;96382.53;;;6.40;71.00
68508;BME280;55510;49.560;19.090;2023-04-21T19:17:59;96371.50;;;6.43;69.73
68508;BME280;55510;49.560;19.090;2023-04-21T19:20:59;96381.66;;;6.46;69.61
68508;BME280;55510;49.560;19.090;2023-04-21T19:24:00;96379.25;;;6.45;69.23
68508;BME280;55510;49.560;19.090;2023-04-21T19:27:01;96379.72;;;6.35;70.31
68508;BME280;55510;49.560;19.090;2023-04-21T19:30:03;96378.97;;;6.28;70.24
68508;BME280;55510;49.560;19.090;2023-04-21T19:33:04;96380.00;;;6.01;72.24
68508;BME280;55510;49.560;19.090;2023-04-21T19:36:05;96384.84;;;5.98;72.42
68508;BME280;55510;49.560;19.090;2023-04-21T19:39:06;96385.72;;;5.91;72.77
68508;BME280;55510;49.560;19.090;2023-04-21T19:42:07;96383.34;;;5.83;73.47
68508;BME280;55510;49.560;19.090;2023-04-21T19:45:08;96388.03;;;5.74;73.99
68508;BME280;55510;49.560;19.090;2023-04-21T19:48:12;96384.84;;;5.65;74.55
68508;BME280;55510;49.560;19.090;2023-04-21T19:51:13;96390.78;;;5.54;74.91
68508;BME280;55510;49.560;19.090;2023-04-21T19:54:13;96386.00;;;5.37;76.09
68508;BME280;55510;49.560;19.090;2023-04-21T19:57:15;96388.50;;;5.26;76.36
68508;BME280;55510;49.560;19.090;2023-04-21T20:00:16;96386.28;;;5.16;77.17
68508;BME280;55510;49.560;19.090;2023-04-21T20:03:17;96390.19;;;5.06;77.86
68508;BME280;55510;49.560;19.090;2023-04-21T20:06:18;96398.31;;;4.98;78.18
68508;BME280;55510;49.560;19.090;2023-04-21T20:09:20;96401.63;;;4.87;79.32
68508;BME280;55510;49.560;19.090;2023-04-21T20:12:20;96398.19;;;4.73;81.06
68508;BME280;55510;49.560;19.090;2023-04-21T20:15:21;96404.28;;;4.67;80.48
68508;BME280;55510;49.560;19.090;2023-04-21T20:18:22;96404.28;;;4.60;81.70
68508;BME280;55510;49.560;19.090;2023-04-21T20:21:23;96403.06;;;4.56;82.29
68508;BME280;55510;49.560;19.090;2023-04-21T20:24:24;96406.91;;;4.53;82.59
68508;BME280;55510;49.560;19.090;2023-04-21T20:27:25;96402.06;;;4.50;82.16
68508;BME280;55510;49.560;19.090;2023-04-21T20:30:26;96402.88;;;4.44;82.11
68508;BME280;55510;49.560;19.090;2023-04-21T20:33:27;96410.38;;;4.40;82.74
68508;BME280;55510;49.560;19.090;2023-04-21T20:36:27;96415.25;;;4.37;82.32
68508;BME280;55510;49.560;19.090;2023-04-21T20:39:28;96408.13;;;4.37;82.00
68508;BME280;55510;49.560;19.090;2023-04-21T20:42:32;96416.66;;;4.32;82.47
68508;BME280;55510;49.560;19.090;2023-04-21T20:45:32;96417.88;;;4.30;82.35
68508;BME280;55510;49.560;19.090;2023-04-21T20:48:34;96416.25;;;4.22;83.00
68508;BME280;55510;49.560;19.090;2023-04-21T20:51:40;96415.22;;;4.10;83.97
68508;BME280;55510;49.560;19.090;2023-04-21T20:54:41;96414.81;;;3.99;84.00
68508;BME280;55510;49.560;19.090;2023-04-21T20:57:43;96416.22;;;3.88;85.06
68508;BME280;55510;49.560;19.090;2023-04-21T21:00:44;96420.88;;;3.80;85.39
68508;BME280;55510;49.560;19.090;2023-04-21T21:03:45;96417.59;;;3.71;85.65
